Airfield :
LOGIN :

Register | Disclaimer

   EN    FR    IT 

 










Legend :    VFR   Marginal VFR   IFR   Intensive IFR   Very Intensive IFR
Visi :
Ceiling :
>= 8 km
>= 3000ft
5 to 8 km
1000 to 3000 ft
1500m to 5 km
500 to 1000 ft
800 to 1500m
200 to 500 ft
< 800m
< 200 ft
Symbols :   Thunderstorms  Fog  Heavy snow  Heavy precipitations  Wind > 20 kt
SIGMETs :     Misc.  Thunderstorms  Icing  Turbulence  Mountain Waves  Volcanic Ashes







- Airport Elevation : 7 ft
- IATA code : XHE
- Download approach charts


LFTH - Hyeres

CURRENT METAR :
  • 210230Z AUTO 31007KT CAVOK 16/12 Q1012 NOSIG

EXPIRED METARs :
  • 210200Z AUTO 31007KT CAVOK 16/12 Q1012 NOSIG
  • 210130Z AUTO 36003KT 320V030 CAVOK 16/12 Q1012 NOSIG
  • 210100Z AUTO 36004KT CAVOK 15/12 Q1012 NOSIG
  • 210030Z AUTO VRB03KT CAVOK 16/11 Q1013 NOSIG
  • 210000Z AUTO 31005KT CAVOK 16/12 Q1013 NOSIG

TAF TAF LFTH
Valid from the 21 at 03:00 until the 22 at 03:00 UTC


210200Z 2103/2203 VRB02KT CAVOK
BECMG 2107/2109 SCT040TCU
TEMPO 2109/2111 -SHRA SCT030CB
No reported NOTAMs for that airfield.



MET'MAP, your aeronautical weather chart ! - Copyright ORBIFLY December 2007 - Disclaimer

ORBIFLY MET'MAP TEAM :

Programming & Development : Alexandra Zaïnal
Concept & Development : Baudouin d'Aumeries
Co-Development & Prog : Marc-Olivier Méhu
Technical & hardware support : Manuel Goepfert

Contact : metmap@orbifly.com




SOURCES & CREDITS :

   NOAA